createdAt,value
2018-01-15T00:00:59.657Z,73.20
2018-01-15T00:03:25.886Z,73.00
2018-01-15T00:05:52.808Z,72.90
2018-01-15T00:08:19.821Z,73.10
2018-01-15T00:10:46.465Z,73.10
2018-01-15T00:13:13.507Z,72.90
2018-01-15T00:15:39.795Z,72.90
2018-01-15T00:18:06.199Z,72.60
2018-01-15T00:20:33.558Z,72.30
2018-01-15T00:23:01.121Z,72.20
2018-01-15T00:25:29.386Z,73.00
2018-01-15T00:27:56.421Z,72.20
2018-01-15T00:30:22.627Z,72.10
2018-01-15T00:32:48.937Z,72.50
2018-01-15T00:35:15.770Z,72.20
2018-01-15T00:37:42.598Z,72.10
2018-01-15T00:40:09.366Z,72.20
2018-01-15T00:42:36.644Z,72.00
2018-01-15T00:45:03.145Z,71.80
2018-01-15T00:47:29.676Z,71.80
2018-01-15T00:49:57.066Z,71.90
2018-01-15T00:52:24.118Z,71.90
2018-01-15T00:54:51.025Z,71.90
2018-01-15T00:57:17.273Z,71.90
2018-01-15T00:59:44.023Z,71.90
2018-01-15T01:02:11.092Z,72.10
2018-01-15T01:04:39.089Z,72.20
2018-01-15T01:07:05.882Z,72.20
2018-01-15T01:09:33.201Z,72.60
2018-01-15T01:12:00.199Z,72.90
2018-01-15T01:14:27.196Z,72.50
2018-01-15T01:16:53.976Z,72.50
2018-01-15T01:19:21.479Z,72.60
2018-01-15T01:21:47.820Z,72.60
2018-01-15T01:24:14.680Z,72.40
2018-01-15T01:26:40.893Z,72.60
2018-01-15T01:29:07.506Z,72.30
2018-01-15T01:31:34.579Z,72.20
2018-01-15T01:34:01.066Z,72.10
2018-01-15T01:36:30.321Z,72.10
2018-01-15T01:38:57.261Z,72.10
2018-01-15T01:41:24.579Z,72.00
2018-01-15T01:43:51.825Z,72.70
2018-01-15T01:46:19.375Z,72.70
2018-01-15T01:48:58.022Z,72.50
2018-01-15T01:51:25.094Z,72.20
2018-01-15T01:53:51.883Z,72.20
2018-01-15T01:56:20.062Z,72.50
2018-01-15T01:58:47.006Z,72.50
2018-01-15T02:01:14.192Z,72.40
2018-01-15T02:03:41.864Z,72.80
2018-01-15T02:06:08.444Z,72.70
2018-01-15T02:08:35.685Z,72.80
2018-01-15T02:11:03.169Z,72.70
2018-01-15T02:13:30.243Z,73.00
2018-01-15T02:15:57.568Z,72.90
2018-01-15T02:18:24.687Z,72.30
2018-01-15T02:20:51.459Z,72.30
2018-01-15T02:23:17.727Z,72.20
2018-01-15T02:25:44.513Z,72.20
2018-01-15T02:28:10.902Z,72.20
2018-01-15T02:30:37.211Z,72.30
2018-01-15T02:33:04.823Z,72.30
2018-01-15T02:35:31.450Z,72.30
2018-01-15T02:37:57.805Z,72.30
2018-01-15T02:40:24.805Z,72.90
2018-01-15T02:45:25.035Z,73.10
2018-01-15T02:47:51.308Z,73.10
2018-01-15T02:50:18.914Z,73.10
2018-01-15T02:52:45.674Z,72.90
2018-01-15T02:55:12.555Z,73.70
2018-01-15T02:57:39.522Z,72.40
2018-01-15T03:00:06.516Z,72.40
2018-01-15T03:02:34.020Z,73.00
2018-01-15T03:05:00.368Z,73.00
2018-01-15T03:07:26.588Z,72.90
2018-01-15T03:09:52.958Z,73.30
2018-01-15T03:12:20.063Z,73.60
2018-01-15T03:14:46.300Z,73.90
2018-01-15T03:17:12.523Z,73.70
2018-01-15T03:19:39.747Z,73.80
2018-01-15T03:22:06.800Z,74.10
2018-01-15T03:24:33.906Z,74.30
2018-01-15T03:27:00.956Z,74.50
2018-01-15T03:29:27.707Z,74.50
2018-01-15T03:31:54.498Z,74.70
2018-01-15T03:34:20.726Z,74.90
2018-01-15T03:36:47.687Z,75.50
2018-01-15T03:39:15.937Z,75.90
2018-01-15T03:41:42.715Z,75.90
2018-01-15T03:44:08.942Z,75.40
2018-01-15T03:46:35.314Z,75.60
2018-01-15T03:49:01.606Z,75.70
2018-01-15T03:51:27.988Z,75.50
2018-01-15T03:53:55.054Z,75.70
2018-01-15T03:56:21.553Z,75.60
2018-01-15T03:58:49.208Z,75.70
2018-01-15T04:01:16.675Z,75.70
2018-01-15T04:03:43.392Z,76.20
2018-01-15T04:06:10.172Z,76.10
2018-01-15T04:08:37.233Z,76.50
2018-01-15T04:11:03.447Z,76.50
2018-01-15T04:13:29.712Z,76.30
2018-01-15T04:15:55.941Z,76.40
2018-01-15T04:18:22.169Z,76.80
2018-01-15T04:20:50.960Z,77.10
2018-01-15T04:23:17.752Z,76.40
2018-01-15T04:25:44.974Z,76.20
2018-01-15T04:28:12.140Z,76.10
2018-01-15T04:30:38.822Z,76.20
2018-01-15T04:33:05.270Z,75.90
2018-01-15T04:35:31.557Z,75.50
2018-01-15T04:37:58.514Z,75.80
2018-01-15T04:40:24.717Z,75.80
2018-01-15T04:42:50.918Z,76.20
2018-01-15T04:45:17.327Z,76.20
2018-01-15T04:47:44.069Z,75.80
2018-01-15T04:50:10.838Z,75.40
2018-01-15T04:52:37.631Z,75.20
2018-01-15T04:55:04.293Z,74.80
2018-01-15T04:57:30.664Z,74.50
2018-01-15T04:59:57.532Z,74.50
2018-01-15T05:02:23.852Z,73.70
2018-01-15T05:04:50.947Z,73.30
2018-01-15T05:07:18.630Z,73.20
2018-01-15T05:09:44.945Z,73.20
2018-01-15T05:12:12.478Z,70.60
2018-01-15T05:14:38.826Z,70.50
2018-01-15T05:17:05.051Z,71.00
2018-01-15T05:19:31.604Z,70.90
2018-01-15T05:21:58.906Z,70.90
2018-01-15T05:24:26.576Z,71.60
2018-01-15T05:26:52.832Z,71.60
2018-01-15T05:29:19.068Z,68.60
2018-01-15T05:31:46.301Z,67.00
2018-01-15T05:34:12.504Z,67.40
2018-01-15T05:36:38.952Z,67.40
2018-01-15T05:39:06.037Z,66.80
2018-01-15T05:41:32.352Z,66.80
2018-01-15T05:43:59.070Z,67.00
2018-01-15T05:46:25.575Z,67.90
2018-01-15T05:48:53.324Z,67.20
2018-01-15T05:51:19.754Z,67.10
2018-01-15T05:53:46.709Z,68.70
2018-01-15T05:56:14.197Z,67.10
2018-01-15T05:58:40.986Z,66.90
2018-01-15T06:01:08.535Z,67.40
2018-01-15T06:03:35.113Z,67.60
2018-01-15T06:06:02.640Z,67.90
2018-01-15T06:08:29.780Z,66.30
2018-01-15T06:10:56.114Z,66.20
2018-01-15T06:13:22.822Z,67.90
2018-01-15T06:15:50.456Z,67.30
2018-01-15T06:18:17.442Z,67.30
2018-01-15T06:20:45.076Z,66.50
2018-01-15T06:23:11.426Z,66.40
2018-01-15T06:25:37.646Z,65.00
2018-01-15T06:28:03.907Z,65.90
2018-01-15T06:30:30.479Z,65.90
2018-01-15T06:32:57.573Z,64.50
2018-01-15T06:35:23.805Z,64.50
2018-01-15T06:37:50.175Z,64.40
2018-01-15T06:40:17.501Z,65.40
2018-01-15T06:42:44.846Z,65.90
2018-01-15T06:45:11.074Z,65.90
2018-01-15T06:47:37.274Z,65.80
2018-01-15T06:50:03.542Z,65.90
2018-01-15T06:52:30.734Z,65.30
2018-01-15T06:54:58.639Z,65.20
2018-01-15T06:57:26.694Z,64.80
2018-01-15T06:59:53.604Z,64.80
2018-01-15T07:02:20.682Z,64.50
2018-01-15T07:04:46.941Z,64.50
2018-01-15T07:07:13.710Z,63.90
2018-01-15T07:09:47.180Z,64.60
2018-01-15T07:12:13.694Z,64.90
2018-01-15T07:14:40.729Z,65.10
2018-01-15T07:17:06.973Z,65.10
2018-01-15T07:19:34.060Z,64.70
2018-01-15T07:22:01.038Z,64.60
2018-01-15T07:24:27.244Z,64.50
2018-01-15T07:26:54.220Z,63.30
2018-01-15T07:29:21.486Z,63.20
2018-01-15T07:31:49.467Z,63.60
2018-01-15T07:34:16.078Z,63.60
2018-01-15T07:36:43.365Z,64.50
2018-01-15T07:39:09.645Z,64.50
2018-01-15T07:41:36.607Z,64.00
2018-01-15T07:44:03.840Z,64.00
2018-01-15T07:46:31.425Z,64.60
2018-01-15T07:48:57.826Z,63.90
2018-01-15T07:51:25.148Z,64.50
2018-01-15T07:53:53.233Z,64.20
2018-01-15T07:56:19.864Z,64.20
2018-01-15T07:58:46.869Z,63.70
2018-01-15T08:01:13.100Z,63.60
2018-01-15T08:03:40.000Z,64.00
2018-01-15T08:06:07.170Z,64.10
2018-01-15T08:08:34.769Z,64.90
2018-01-15T08:11:01.817Z,64.70
2018-01-15T08:13:28.315Z,64.60
2018-01-15T08:15:55.672Z,63.50
2018-01-15T08:18:23.214Z,64.10
2018-01-15T08:20:50.235Z,63.30
2018-01-15T08:23:17.476Z,63.70
2018-01-15T08:25:44.478Z,64.00
2018-01-15T08:28:10.744Z,63.90
2018-01-15T08:30:37.041Z,63.90
2018-01-15T08:33:03.257Z,64.60
2018-01-15T08:35:30.474Z,64.00
2018-01-15T08:37:58.166Z,63.70
2018-01-15T08:40:26.803Z,64.00
2018-01-15T08:42:53.052Z,64.00
2018-01-15T08:45:20.074Z,63.90
2018-01-15T08:47:46.299Z,63.90
2018-01-15T08:50:13.024Z,64.10
2018-01-15T08:52:40.054Z,61.70
2018-01-15T08:55:06.334Z,61.70
2018-01-15T08:57:33.197Z,63.10
2018-01-15T09:00:00.920Z,62.00
2018-01-15T09:02:27.728Z,62.00
2018-01-15T09:04:54.108Z,61.80
2018-01-15T09:07:21.014Z,62.50
2018-01-15T09:09:48.350Z,62.30
2018-01-15T09:12:15.873Z,63.20
2018-01-15T09:14:44.446Z,61.80
2018-01-15T09:17:11.646Z,61.70
2018-01-15T09:19:38.950Z,63.30
2018-01-15T09:22:05.922Z,62.40
2018-01-15T09:24:32.806Z,62.40
2018-01-15T09:26:59.034Z,60.40
2018-01-15T09:29:26.440Z,61.00
2018-01-15T09:31:52.680Z,60.70
2018-01-15T09:34:19.006Z,60.00
2018-01-15T09:36:45.478Z,59.90
2018-01-15T09:39:12.647Z,60.60
2018-01-15T09:41:41.106Z,59.50
2018-01-15T09:44:07.638Z,59.40
2018-01-15T09:46:34.693Z,58.30
2018-01-15T09:49:00.941Z,58.30
2018-01-15T09:51:27.381Z,59.20
2018-01-15T09:53:53.634Z,59.20
2018-01-15T09:56:21.540Z,59.20
2018-01-15T09:58:48.563Z,57.90
2018-01-15T10:01:14.808Z,57.90
2018-01-15T10:03:41.853Z,58.40
2018-01-15T10:06:08.367Z,57.80
2018-01-15T10:08:35.487Z,58.70
2018-01-15T10:11:02.346Z,58.60
2018-01-15T10:13:30.006Z,60.10
2018-01-15T10:15:57.714Z,59.60
2018-01-15T10:18:25.328Z,58.00
2018-01-15T10:20:52.577Z,59.30
2018-01-15T10:23:18.921Z,58.80
2018-01-15T10:25:46.142Z,58.10
2018-01-15T10:28:12.856Z,58.10
2018-01-15T10:30:39.891Z,58.10
2018-01-15T10:33:06.730Z,58.10
2018-01-15T10:35:33.099Z,57.50
2018-01-15T10:38:02.153Z,57.80
2018-01-15T10:40:29.014Z,57.60
2018-01-15T10:42:56.617Z,57.50
2018-01-15T10:45:23.711Z,58.10
2018-01-15T10:47:50.051Z,58.10
2018-01-15T10:50:16.304Z,58.10
2018-01-15T10:52:43.091Z,58.10
2018-01-15T10:55:09.892Z,57.90
2018-01-15T10:57:36.099Z,57.80
2018-01-15T11:00:02.890Z,57.60
2018-01-15T11:02:30.039Z,58.60
2018-01-15T11:04:56.275Z,57.80
2018-01-15T11:07:23.142Z,58.20
2018-01-15T11:09:50.637Z,57.60
2018-01-15T11:12:17.907Z,58.10
2018-01-15T11:14:45.314Z,58.00
2018-01-15T11:17:11.594Z,58.00
2018-01-15T11:19:38.560Z,57.40
2018-01-15T11:22:05.261Z,57.40
2018-01-15T11:24:32.449Z,57.60
2018-01-15T11:26:59.493Z,58.00
2018-01-15T11:29:26.189Z,58.00
2018-01-15T11:31:53.887Z,57.90
2018-01-15T11:34:20.963Z,58.20
2018-01-15T11:36:47.318Z,58.10
2018-01-15T11:39:13.630Z,57.80
2018-01-15T11:41:40.588Z,58.00
2018-01-15T11:44:07.447Z,57.60
2018-01-15T11:46:34.157Z,58.10
2018-01-15T11:49:01.081Z,58.60
2018-01-15T11:51:28.391Z,57.40
2018-01-15T11:53:55.403Z,57.50
2018-01-15T11:56:21.871Z,57.40
2018-01-15T11:58:48.858Z,58.50
2018-01-15T12:01:15.720Z,58.50
2018-01-15T12:03:42.586Z,57.60
2018-01-15T12:06:08.977Z,58.00
2018-01-15T12:08:35.197Z,58.30
2018-01-15T12:11:01.847Z,58.60
2018-01-15T12:13:29.487Z,58.40
2018-01-15T12:15:55.850Z,58.40
2018-01-15T12:18:22.658Z,57.90
2018-01-15T12:20:49.809Z,57.90
2018-01-15T12:23:16.152Z,57.80
2018-01-15T12:25:42.689Z,58.50
2018-01-15T12:28:10.312Z,58.30
2018-01-15T12:30:37.688Z,58.40
2018-01-15T12:33:04.228Z,58.30
2018-01-15T12:35:30.460Z,58.90
2018-01-15T12:37:57.559Z,59.00
2018-01-15T12:40:24.233Z,59.00
2018-01-15T12:42:51.295Z,58.20
2018-01-15T12:45:17.623Z,58.20
2018-01-15T12:47:44.187Z,58.60
2018-01-15T12:50:11.547Z,59.40
2018-01-15T12:52:39.097Z,59.60
2018-01-15T12:55:06.812Z,59.60
2018-01-15T12:57:34.580Z,58.30
2018-01-15T13:00:01.576Z,58.40
2018-01-15T13:02:27.797Z,58.40
2018-01-15T13:04:54.140Z,57.90
2018-01-15T13:07:33.524Z,58.90
2018-01-15T13:10:00.602Z,59.00
2018-01-15T13:12:26.833Z,59.10
2018-01-15T13:14:53.624Z,59.20
2018-01-15T13:17:20.005Z,59.50
2018-01-15T13:19:46.450Z,58.40
2018-01-15T13:22:12.688Z,59.00
2018-01-15T13:24:38.998Z,58.20
2018-01-15T13:27:05.956Z,58.40
2018-01-15T13:29:32.990Z,57.80
2018-01-15T13:31:59.290Z,57.80
2018-01-15T13:34:26.141Z,58.10
2018-01-15T13:36:52.674Z,58.10
2018-01-15T13:39:20.329Z,58.50
2018-01-15T13:41:47.813Z,58.40
2018-01-15T13:44:15.128Z,58.60
2018-01-15T13:46:42.187Z,58.70
2018-01-15T13:49:09.968Z,58.70
2018-01-15T13:51:36.285Z,58.70
2018-01-15T13:54:02.827Z,59.50
2018-01-15T13:56:29.640Z,60.20
2018-01-15T13:58:57.200Z,59.20
2018-01-15T14:01:24.274Z,57.90
2018-01-15T14:03:51.545Z,57.90
2018-01-15T14:06:18.705Z,56.50
2018-01-15T14:08:45.597Z,56.40
2018-01-15T14:11:12.788Z,58.40
2018-01-15T14:13:40.216Z,56.60
2018-01-15T14:16:06.792Z,56.50
2018-01-15T14:18:33.565Z,55.90
2018-01-15T14:21:01.068Z,56.10
2018-01-15T14:23:27.454Z,56.10
2018-01-15T14:25:54.721Z,54.60
2018-01-15T14:28:21.804Z,54.20
2018-01-15T14:30:48.437Z,54.70
2018-01-15T14:33:15.584Z,54.60
2018-01-15T14:35:41.813Z,54.60
2018-01-15T14:38:08.198Z,54.50
2018-01-15T14:40:34.424Z,54.40
2018-01-15T14:43:01.792Z,54.20
2018-01-15T14:45:28.039Z,54.50
2018-01-15T14:47:54.629Z,55.00
2018-01-15T14:50:21.110Z,55.10
2018-01-15T14:52:48.420Z,55.20
2018-01-15T14:55:16.444Z,55.80
2018-01-15T14:57:42.724Z,55.80
2018-01-15T15:00:09.132Z,55.10
2018-01-15T15:02:35.923Z,55.10
2018-01-15T15:05:02.308Z,55.60
2018-01-15T15:07:28.756Z,55.80
2018-01-15T15:09:55.133Z,55.80
2018-01-15T15:12:21.370Z,56.30
2018-01-15T15:14:47.652Z,56.40
2018-01-15T15:17:14.417Z,56.60
2018-01-15T15:19:41.468Z,57.10
2018-01-15T15:22:08.958Z,57.20
2018-01-15T15:24:36.794Z,57.30
2018-01-15T15:27:03.234Z,57.30
2018-01-15T15:29:29.770Z,57.10
2018-01-15T15:31:56.820Z,57.60
2018-01-15T15:34:23.313Z,57.60
2018-01-15T15:36:50.291Z,57.70
2018-01-15T15:39:16.529Z,57.70
2018-01-15T15:41:43.387Z,58.30
2018-01-15T15:44:09.617Z,58.10
2018-01-15T15:46:36.211Z,57.70
2018-01-15T15:49:03.887Z,57.90
2018-01-15T15:51:30.707Z,57.90
2018-01-15T15:53:58.033Z,58.20
2018-01-15T15:56:26.218Z,58.60
2018-01-15T15:58:52.511Z,58.60
2018-01-15T16:01:19.266Z,58.60
2018-01-15T16:03:46.526Z,58.30
2018-01-15T16:06:13.711Z,58.10
2018-01-15T16:08:40.829Z,59.00
2018-01-15T16:11:08.042Z,59.00
2018-01-15T16:13:34.416Z,59.10
2018-01-15T16:16:00.688Z,58.80
2018-01-15T16:18:27.570Z,58.80
2018-01-15T16:20:54.809Z,58.70
2018-01-15T16:23:21.039Z,58.60
2018-01-15T16:25:47.274Z,58.70
2018-01-15T16:28:13.998Z,58.50
2018-01-15T16:30:40.258Z,58.40
2018-01-15T16:33:06.526Z,58.50
2018-01-15T16:35:33.454Z,58.50
2018-01-15T16:38:00.427Z,58.20
2018-01-15T16:40:27.120Z,58.20
2018-01-15T16:42:55.906Z,58.20
2018-01-15T16:45:22.580Z,58.20
2018-01-15T16:47:49.427Z,58.40
2018-01-15T16:50:22.919Z,58.50
2018-01-15T16:52:50.134Z,58.20
2018-01-15T16:55:16.416Z,58.00
2018-01-15T16:57:42.755Z,58.20
2018-01-15T17:00:09.182Z,58.60
2018-01-15T17:02:36.026Z,59.10
2018-01-15T17:05:02.533Z,58.80
2018-01-15T17:07:29.613Z,58.60
2018-01-15T17:09:55.850Z,58.60
2018-01-15T17:12:22.364Z,58.30
2018-01-15T17:14:48.603Z,58.30
2018-01-15T17:17:15.423Z,58.50
2018-01-15T17:19:42.377Z,58.40
2018-01-15T17:22:09.015Z,58.40
2018-01-15T17:24:35.265Z,58.40
2018-01-15T17:27:01.572Z,58.20
2018-01-15T17:29:27.925Z,58.20
2018-01-15T17:31:54.181Z,58.10
2018-01-15T17:34:20.900Z,58.20
2018-01-15T17:36:47.211Z,58.10
2018-01-15T17:39:14.655Z,58.20
2018-01-15T17:41:40.983Z,57.80
2018-01-15T17:44:07.867Z,57.80
2018-01-15T17:46:34.117Z,58.00
2018-01-15T17:49:00.406Z,58.20
2018-01-15T17:51:27.354Z,58.40
2018-01-15T17:53:54.288Z,58.30
2018-01-15T17:56:20.566Z,58.00
2018-01-15T17:58:46.971Z,58.00
2018-01-15T18:01:13.487Z,58.00
2018-01-15T18:03:39.899Z,57.80
2018-01-15T18:06:06.951Z,57.80
2018-01-15T18:08:33.370Z,57.70
2018-01-15T18:11:01.479Z,57.70
2018-01-15T18:13:27.763Z,57.70
2018-01-15T18:15:54.751Z,57.80
2018-01-15T18:18:21.575Z,57.80
2018-01-15T18:20:47.863Z,57.70
2018-01-15T18:23:15.082Z,57.30
2018-01-15T18:25:41.387Z,57.60
2018-01-15T18:28:08.128Z,57.80
2018-01-15T18:30:35.759Z,57.80
2018-01-15T18:33:02.768Z,57.80
2018-01-15T18:35:29.673Z,57.60
2018-01-15T18:37:56.513Z,57.40
2018-01-15T18:40:22.931Z,57.80
2018-01-15T18:42:49.979Z,57.10
2018-01-15T18:45:17.023Z,57.20
2018-01-15T18:47:44.073Z,56.80
2018-01-15T18:50:11.644Z,56.80
2018-01-15T18:52:38.175Z,56.80
2018-01-15T18:55:05.171Z,57.20
2018-01-15T18:57:31.573Z,57.20
2018-01-15T18:59:58.618Z,56.10
2018-01-15T19:02:24.902Z,56.10
2018-01-15T19:04:51.540Z,56.50
2018-01-15T19:07:19.213Z,55.90
2018-01-15T19:09:46.532Z,56.00
2018-01-15T19:12:13.295Z,56.10
2018-01-15T19:14:39.869Z,56.30
2018-01-15T19:17:07.122Z,56.30
2018-01-15T19:19:34.287Z,55.60
2018-01-15T19:22:00.524Z,55.60
2018-01-15T19:24:27.264Z,56.10
2018-01-15T19:26:54.544Z,56.30
2018-01-15T19:29:20.826Z,56.50
2018-01-15T19:31:47.177Z,56.50
2018-01-15T19:34:13.457Z,56.60
2018-01-15T19:36:45.754Z,56.80
2018-01-15T19:39:13.133Z,56.50
2018-01-15T19:41:40.624Z,56.30
2018-01-15T19:44:14.400Z,56.60
2018-01-15T19:46:47.435Z,56.60
2018-01-15T19:49:21.002Z,56.50
2018-01-15T19:51:53.779Z,56.40
2018-01-15T19:54:27.219Z,59.60
2018-01-15T19:56:59.833Z,59.50
2018-01-15T19:59:32.826Z,59.00
2018-01-15T20:02:15.495Z,60.40
2018-01-15T20:04:48.184Z,57.40
2018-01-15T20:07:21.497Z,56.10
2018-01-15T20:09:57.042Z,57.10
2018-01-15T20:12:25.107Z,57.00
2018-01-15T20:14:51.745Z,56.60
2018-01-15T20:17:19.640Z,57.40
2018-01-15T20:19:46.790Z,57.30
2018-01-15T20:22:15.377Z,57.00
2018-01-15T20:24:43.914Z,57.20
2018-01-15T20:27:10.409Z,57.20
2018-01-15T20:29:36.976Z,57.20
2018-01-15T20:32:03.534Z,57.30
2018-01-15T20:34:29.923Z,57.50
2018-01-15T20:36:57.216Z,57.30
2018-01-15T20:39:23.858Z,57.30
2018-01-15T20:41:51.304Z,56.80
2018-01-15T20:44:18.514Z,56.80
2018-01-15T20:46:45.916Z,56.80
2018-01-15T20:49:12.352Z,57.00
2018-01-15T20:51:39.634Z,56.90
2018-01-15T20:54:05.980Z,56.70
2018-01-15T20:56:32.339Z,56.70
2018-01-15T20:58:59.471Z,56.60
2018-01-15T21:01:26.618Z,56.40
2018-01-15T21:03:53.511Z,56.40
2018-01-15T21:06:20.765Z,56.40
2018-01-15T21:08:47.793Z,56.30
2018-01-15T21:11:14.310Z,56.30
2018-01-15T21:13:41.411Z,56.70
2018-01-15T21:16:08.995Z,56.70
2018-01-15T21:18:36.507Z,56.70
2018-01-15T21:21:03.237Z,57.10
2018-01-15T21:23:31.364Z,57.30
2018-01-15T21:25:58.373Z,57.30
2018-01-15T21:28:25.499Z,56.70
2018-01-15T21:30:51.867Z,56.70
2018-01-15T21:33:18.709Z,56.70
2018-01-15T21:35:45.479Z,56.70
2018-01-15T21:38:12.152Z,56.50
2018-01-15T21:40:39.213Z,57.00
2018-01-15T21:43:06.039Z,57.00
2018-01-15T21:45:32.331Z,57.40
2018-01-15T21:47:58.813Z,57.40
2018-01-15T21:50:26.711Z,58.00
2018-01-15T21:52:53.699Z,58.30
2018-01-15T21:55:21.208Z,58.20
2018-01-15T21:57:47.896Z,58.20
2018-01-15T22:00:15.071Z,58.40
2018-01-15T22:02:41.266Z,58.50
2018-01-15T22:05:08.760Z,58.70
2018-01-15T22:07:35.158Z,58.70
2018-01-15T22:10:02.119Z,59.10
2018-01-15T22:12:28.810Z,59.10
2018-01-15T22:14:56.881Z,59.40
2018-01-15T22:17:23.380Z,59.40
2018-01-15T22:19:49.992Z,59.30
2018-01-15T22:22:16.742Z,59.40
2018-01-15T22:24:42.951Z,59.60
2018-01-15T22:27:10.055Z,60.10
2018-01-15T22:29:36.463Z,60.50
2018-01-15T22:32:03.634Z,60.40
2018-01-15T22:34:31.255Z,60.20
2018-01-15T22:36:57.570Z,60.20
2018-01-15T22:39:25.512Z,60.90
2018-01-15T22:41:51.720Z,60.80
2018-01-15T22:44:18.569Z,61.10
2018-01-15T22:46:44.794Z,62.30
2018-01-15T22:49:11.339Z,61.40
2018-01-15T22:51:38.412Z,61.90
2018-01-15T22:54:05.516Z,61.70
2018-01-15T22:56:32.530Z,61.50
2018-01-15T22:58:58.851Z,61.50
2018-01-15T23:01:25.830Z,61.50
2018-01-15T23:03:52.563Z,61.40
2018-01-15T23:06:18.775Z,61.80
2018-01-15T23:08:45.517Z,62.40
2018-01-15T23:11:12.231Z,62.50
2018-01-15T23:13:39.600Z,62.20
2018-01-15T23:16:06.675Z,62.40
2018-01-15T23:18:32.892Z,62.30
2018-01-15T23:20:59.115Z,62.40
2018-01-15T23:23:25.488Z,62.20
2018-01-15T23:25:53.486Z,62.10
2018-01-15T23:28:20.421Z,62.10
2018-01-15T23:30:53.659Z,62.10
2018-01-15T23:33:21.285Z,62.10
2018-01-15T23:35:47.557Z,62.00
2018-01-15T23:38:13.745Z,62.50
2018-01-15T23:40:40.824Z,62.60
2018-01-15T23:43:07.551Z,62.50
2018-01-15T23:45:33.789Z,62.40
2018-01-15T23:47:59.985Z,62.80
2018-01-15T23:50:27.178Z,62.40
2018-01-15T23:52:54.634Z,63.20
2018-01-15T23:55:21.696Z,62.00
2018-01-15T23:57:48.008Z,62.00
